MSC Emma — V7WY6 — position and weather

sailwx.info

Track history (hours):
 
Tides and Currents Weather Stations Pressure Air Temp Water Temp Dewpoint Dewpoint Depression Visibility Wind Speed Wind Dir Waves Ship Positions

MSC Emma

Last reported at 2015-Jan-21 20:13 UTC. Time now 2015-Jan-26 06:29 UTC.
Position N 01°52' E 102°27'.

Length 294 m; draft 13.5 m.

Type: Ship (hazmat cat A). MMSI: 538004424.

Date/timePositionNaut miles runAvg speedWind from/ knotsBaromVisibWave heightAir tempDewpointWater temp
2015-Jan-21 20:13N 01°52' E 102°27'1218.2
2015-Jan-21 19:33N 01°46' E 102°37'75 4.3
2015-Jan-21 02:13N 01°16' E 103°46'0 0.0
2015-Jan-21 00:33N 01°16' E 103°46'0 0.0
2015-Jan-20 23:27N 01°16' E 103°46'0 0.0
2015-Jan-20 22:32N 01°16' E 103°46'0 0.0
2015-Jan-20 21:32N 01°16' E 103°46'0 0.0
2015-Jan-20 20:04N 01°16' E 103°46'0 0.0
2015-Jan-20 19:31N 01°16' E 103°46'0 0.0
2015-Jan-20 18:19N 01°16' E 103°46'0 0.0
2015-Jan-20 17:30N 01°16' E 103°46'0 0.0
2015-Jan-20 16:27N 01°16' E 103°46'0 0.0
2015-Jan-20 15:29N 01°16' E 103°46'0 0.3
2015-Jan-20 14:33N 01°16' E 103°46'6 6.3
2015-Jan-20 13:33N 01°14' E 103°52'1010.4
2015-Jan-20 12:33N 01°16' E 104°02'  
2015-Jan-17 04:16N 22°08' E 114°14'1112.3
2015-Jan-17 03:23N 22°16' E 114°06'1211.0
2015-Jan-17 02:16N 22°22' E 113°54'6 8.9
2015-Jan-17 01:33N 22°28' E 113°52'0 0.2
2015-Jan-17 00:16N 22°28' E 113°52'0 0.0
2015-Jan-16 23:22N 22°28' E 113°52'0 0.0
2015-Jan-16 22:28N 22°28' E 113°52'0 0.0
2015-Jan-16 21:33N 22°28' E 113°52'0 0.0
2015-Jan-16 20:21N 22°28' E 113°52'0 0.0
2015-Jan-16 19:32N 22°28' E 113°52'0 0.0
2015-Jan-16 18:32N 22°28' E 113°52'0 0.0
2015-Jan-16 17:31N 22°28' E 113°52'0 0.0
2015-Jan-16 16:31N 22°28' E 113°52'0 0.0
2015-Jan-16 15:31N 22°28' E 113°52'0 0.0
2015-Jan-16 14:18N 22°28' E 113°52'0 0.1
2015-Jan-16 13:09N 22°28' E 113°52'4 6.6
2015-Jan-16 12:33N 22°24' E 113°53'12 9.1
2015-Jan-16 11:15N 22°20' E 114°05'1111.5
2015-Jan-16 10:18N 22°11' E 114°12'8 8.5
2015-Jan-16 09:24N 22°04' E 114°08'6 6.7
2015-Jan-16 08:33N 22°01' E 114°03'1110.8
2015-Jan-16 07:33N 22°02' E 113°51'1010.3
2015-Jan-16 06:34N 22°12' E 113°49'1414.1
2015-Jan-16 05:33N 22°26' E 113°45'1313.0
2015-Jan-16 04:33N 22°38' E 113°41'1 0.1
2015-Jan-15 17:30N 22°39' E 113°41'2 0.7
2015-Jan-15 14:08N 22°37' E 113°42'1014.3
2015-Jan-15 13:26N 22°27' E 113°45'1314.5
2015-Jan-15 12:33N 22°15' E 113°49'10 9.8
2015-Jan-15 11:33N 22°05' E 113°51'8 7.7
2015-Jan-15 10:29N 22°08' E 113°60'1111.4
2015-Jan-15 09:30N 22°08' E 114°12'22318.1
2015-Jan-14 21:09N 23°30' E 117°57'1117.7
2015-Jan-14 20:33N 23°37' E 118°06'1817.7
2015-Jan-14 19:31N 23°49' E 118°21'1817.4
2015-Jan-14 18:29N 24°01' E 118°36'2417.1
2015-Jan-14 17:07N 24°16' E 118°55'2818.1
2015-Jan-14 15:33N 24°34' E 119°19'34717.3
2015-Jan-13 19:33N 29°39' E 122°25'1414.4
2015-Jan-13 18:33N 29°49' E 122°14'1110.6
2015-Jan-13 17:33N 29°54' E 122°03'0 0.3
2015-Jan-13 16:04N 29°54' E 122°02'0 0.0
2015-Jan-13 15:28N 29°54' E 122°02'0 0.0
2015-Jan-13 14:10N 29°54' E 122°02'0 0.0
2015-Jan-13 13:28N 29°54' E 122°02'0 0.0
2015-Jan-13 12:03N 29°54' E 122°02'0 0.0
2015-Jan-13 11:07N 29°54' E 122°02'0 0.0
2015-Jan-13 08:25N 29°54' E 122°02'0 0.0
2015-Jan-13 07:25N 29°54' E 122°02'0 0.0
2015-Jan-13 06:19N 29°54' E 122°02'0 0.0
2015-Jan-13 04:12N 29°54' E 122°02'0 0.0
2015-Jan-13 03:25N 29°54' E 122°02'0 0.0
2015-Jan-13 02:18N 29°54' E 122°02'0 0.0
2015-Jan-13 00:29N 29°54' E 122°02'0 0.0
2015-Jan-12 22:22N 29°54' E 122°02'0 0.0
2015-Jan-12 20:22N 29°54' E 122°02'0 0.0
2015-Jan-12 19:15N 29°54' E 122°02'0 0.1
2015-Jan-12 18:33N 29°54' E 122°02'7 7.1
2015-Jan-12 17:33N 29°54' E 122°11'1211.7
2015-Jan-12 16:33N 29°45' E 122°20'2 1.9
2015-Jan-12 15:19N 29°44' E 122°22'0 0.0
2015-Jan-12 13:30N 29°44' E 122°22'0 0.0
2015-Jan-12 10:29N 29°44' E 122°22'0 0.1
2015-Jan-12 09:28N 29°44' E 122°22'0 0.0
2015-Jan-12 07:33N 29°44' E 122°22'0 0.1
2015-Jan-12 06:15N 29°45' E 122°22'0 0.0
2015-Jan-12 04:08N 29°45' E 122°22'0 0.0
2015-Jan-12 03:32N 29°45' E 122°22'0 0.0
2015-Jan-12 02:25N 29°44' E 122°22'0 0.0
2015-Jan-12 01:13N 29°44' E 122°22'0 0.0
2015-Jan-12 00:12N 29°44' E 122°22'0 0.0
2015-Jan-11 23:24N 29°44' E 122°22'0 0.1
2015-Jan-11 22:30N 29°44' E 122°22'  
Track history (hours):
 
Tides and Currents Weather Stations Pressure Air Temp Water Temp Dewpoint Dewpoint Depression Visibility Wind Speed Wind Dir Waves Ship Positions

MSC Emma

Last reported at 2015-Jan-21 20:13 UTC. Time now 2015-Jan-26 06:29 UTC.
Position N 01°52' E 102°27'.

Length 294 m; draft 13.5 m.

Type: Ship (hazmat cat A). MMSI: 538004424.

Date/timePositionNaut miles runAvg speedWind from/ knotsBaromVisibWave heightAir tempDewpointWater temp
2015-Jan-21 20:13N 01°52' E 102°27'1218.2
2015-Jan-21 19:33N 01°46' E 102°37'75 4.3
2015-Jan-21 02:13N 01°16' E 103°46'0 0.0
2015-Jan-21 00:33N 01°16' E 103°46'0 0.0
2015-Jan-20 23:27N 01°16' E 103°46'0 0.0
2015-Jan-20 22:32N 01°16' E 103°46'0 0.0
2015-Jan-20 21:32N 01°16' E 103°46'0 0.0
2015-Jan-20 20:04N 01°16' E 103°46'0 0.0
2015-Jan-20 19:31N 01°16' E 103°46'0 0.0
2015-Jan-20 18:19N 01°16' E 103°46'0 0.0
2015-Jan-20 17:30N 01°16' E 103°46'0 0.0
2015-Jan-20 16:27N 01°16' E 103°46'0 0.0
2015-Jan-20 15:29N 01°16' E 103°46'0 0.3
2015-Jan-20 14:33N 01°16' E 103°46'6 6.3
2015-Jan-20 13:33N 01°14' E 103°52'1010.4
2015-Jan-20 12:33N 01°16' E 104°02'  
2015-Jan-17 04:16N 22°08' E 114°14'1112.3
2015-Jan-17 03:23N 22°16' E 114°06'1211.0
2015-Jan-17 02:16N 22°22' E 113°54'6 8.9
2015-Jan-17 01:33N 22°28' E 113°52'0 0.2
2015-Jan-17 00:16N 22°28' E 113°52'0 0.0
2015-Jan-16 23:22N 22°28' E 113°52'0 0.0
2015-Jan-16 22:28N 22°28' E 113°52'0 0.0
2015-Jan-16 21:33N 22°28' E 113°52'0 0.0
2015-Jan-16 20:21N 22°28' E 113°52'0 0.0
2015-Jan-16 19:32N 22°28' E 113°52'0 0.0
2015-Jan-16 18:32N 22°28' E 113°52'0 0.0
2015-Jan-16 17:31N 22°28' E 113°52'0 0.0
2015-Jan-16 16:31N 22°28' E 113°52'0 0.0
2015-Jan-16 15:31N 22°28' E 113°52'0 0.0
2015-Jan-16 14:18N 22°28' E 113°52'0 0.1
2015-Jan-16 13:09N 22°28' E 113°52'4 6.6
2015-Jan-16 12:33N 22°24' E 113°53'12 9.1
2015-Jan-16 11:15N 22°20' E 114°05'1111.5
2015-Jan-16 10:18N 22°11' E 114°12'8 8.5
2015-Jan-16 09:24N 22°04' E 114°08'6 6.7
2015-Jan-16 08:33N 22°01' E 114°03'1110.8
2015-Jan-16 07:33N 22°02' E 113°51'1010.3
2015-Jan-16 06:34N 22°12' E 113°49'1414.1
2015-Jan-16 05:33N 22°26' E 113°45'1313.0
2015-Jan-16 04:33N 22°38' E 113°41'1 0.1
2015-Jan-15 17:30N 22°39' E 113°41'2 0.7
2015-Jan-15 14:08N 22°37' E 113°42'1014.3
2015-Jan-15 13:26N 22°27' E 113°45'1314.5
2015-Jan-15 12:33N 22°15' E 113°49'10 9.8
2015-Jan-15 11:33N 22°05' E 113°51'8 7.7
2015-Jan-15 10:29N 22°08' E 113°60'1111.4
2015-Jan-15 09:30N 22°08' E 114°12'22318.1
2015-Jan-14 21:09N 23°30' E 117°57'1117.7
2015-Jan-14 20:33N 23°37' E 118°06'1817.7
2015-Jan-14 19:31N 23°49' E 118°21'1817.4
2015-Jan-14 18:29N 24°01' E 118°36'2417.1
2015-Jan-14 17:07N 24°16' E 118°55'2818.1
2015-Jan-14 15:33N 24°34' E 119°19'34717.3
2015-Jan-13 19:33N 29°39' E 122°25'1414.4
2015-Jan-13 18:33N 29°49' E 122°14'1110.6
2015-Jan-13 17:33N 29°54' E 122°03'0 0.3
2015-Jan-13 16:04N 29°54' E 122°02'0 0.0
2015-Jan-13 15:28N 29°54' E 122°02'0 0.0
2015-Jan-13 14:10N 29°54' E 122°02'0 0.0
2015-Jan-13 13:28N 29°54' E 122°02'0 0.0
2015-Jan-13 12:03N 29°54' E 122°02'0 0.0
2015-Jan-13 11:07N 29°54' E 122°02'0 0.0
2015-Jan-13 08:25N 29°54' E 122°02'0 0.0
2015-Jan-13 07:25N 29°54' E 122°02'0 0.0
2015-Jan-13 06:19N 29°54' E 122°02'0 0.0
2015-Jan-13 04:12N 29°54' E 122°02'0 0.0
2015-Jan-13 03:25N 29°54' E 122°02'0 0.0
2015-Jan-13 02:18N 29°54' E 122°02'0 0.0
2015-Jan-13 00:29N 29°54' E 122°02'0 0.0
2015-Jan-12 22:22N 29°54' E 122°02'0 0.0
2015-Jan-12 20:22N 29°54' E 122°02'0 0.0
2015-Jan-12 19:15N 29°54' E 122°02'0 0.1
2015-Jan-12 18:33N 29°54' E 122°02'7 7.1
2015-Jan-12 17:33N 29°54' E 122°11'1211.7
2015-Jan-12 16:33N 29°45' E 122°20'2 1.9
2015-Jan-12 15:19N 29°44' E 122°22'0 0.0
2015-Jan-12 13:30N 29°44' E 122°22'0 0.0
2015-Jan-12 10:29N 29°44' E 122°22'0 0.1
2015-Jan-12 09:28N 29°44' E 122°22'0 0.0
2015-Jan-12 07:33N 29°44' E 122°22'0 0.1
2015-Jan-12 06:15N 29°45' E 122°22'0 0.0
2015-Jan-12 04:08N 29°45' E 122°22'0 0.0
2015-Jan-12 03:32N 29°45' E 122°22'0 0.0
2015-Jan-12 02:25N 29°44' E 122°22'0 0.0
2015-Jan-12 01:13N 29°44' E 122°22'0 0.0
2015-Jan-12 00:12N 29°44' E 122°22'0 0.0
2015-Jan-11 23:24N 29°44' E 122°22'0 0.1
2015-Jan-11 22:30N 29°44' E 122°22'  

Dump ship's entire track history